createdAt,value
2018-11-22T00:00:28.599Z,99.99
2018-11-22T00:01:30.101Z,99.99
2018-11-22T00:02:30.724Z,99.99
2018-11-22T00:03:32.062Z,99.99
2018-11-22T00:04:33.055Z,99.99
2018-11-22T00:05:33.673Z,99.99
2018-11-22T00:06:33.726Z,99.99
2018-11-22T00:07:34.511Z,99.99
2018-11-22T00:08:35.640Z,99.99
2018-11-22T00:09:36.425Z,99.99
2018-11-22T00:10:37.760Z,99.99
2018-11-22T00:11:38.560Z,99.99
2018-11-22T00:12:39.063Z,99.99
2018-11-22T00:13:39.844Z,99.99
2018-11-22T00:14:40.902Z,99.99
2018-11-22T00:15:42.354Z,99.99
2018-11-22T00:16:42.693Z,99.99
2018-11-22T00:17:44.340Z,99.99
2018-11-22T00:18:45.188Z,99.99
2018-11-22T00:19:45.967Z,99.99
2018-11-22T00:20:46.751Z,99.99
2018-11-22T00:21:47.533Z,99.99
2018-11-22T00:22:48.313Z,99.99
2018-11-22T00:23:49.372Z,99.99
2018-11-22T00:24:50.155Z,99.99
2018-11-22T00:25:50.212Z,99.99
2018-11-22T00:26:51.548Z,99.99
2018-11-22T00:27:51.606Z,99.99
2018-11-22T00:28:52.439Z,99.99
2018-11-22T00:29:53.059Z,99.99
2018-11-22T00:30:53.286Z,99.99
2018-11-22T00:31:54.065Z,99.99
2018-11-22T00:32:54.325Z,99.99
2018-11-22T00:33:55.384Z,99.99
2018-11-22T00:34:55.996Z,99.99
2018-11-22T00:35:56.779Z,99.99
2018-11-22T00:36:57.285Z,99.99
2018-11-22T00:37:58.343Z,99.99
2018-11-22T00:38:59.470Z,99.99
2018-11-22T00:39:59.806Z,99.99
2018-11-22T00:41:01.144Z,99.99
2018-11-22T00:42:01.923Z,99.99
2018-11-22T00:43:02.537Z,99.99
2018-11-22T00:44:03.151Z,99.99
2018-11-22T00:45:04.212Z,99.99
2018-11-22T00:46:05.279Z,99.99
2018-11-22T00:47:06.333Z,99.99
2018-11-22T00:48:06.395Z,99.99
2018-11-22T00:49:06.946Z,99.99
2018-11-22T00:50:07.450Z,99.99
2018-11-22T00:51:08.790Z,99.99
2018-11-22T00:52:10.128Z,99.99
2018-11-22T00:53:10.631Z,99.99
2018-11-22T00:54:11.693Z,99.99
2018-11-22T00:55:12.750Z,99.99
2018-11-22T00:56:13.267Z,99.99
2018-11-22T00:57:14.602Z,99.99
2018-11-22T00:58:14.662Z,99.99
2018-11-22T00:59:15.935Z,99.99
2018-11-22T01:00:16.544Z,99.99
2018-11-22T01:01:17.161Z,99.99
2018-11-22T01:02:18.220Z,99.99
2018-11-22T01:03:18.558Z,99.99
2018-11-22T01:04:19.615Z,99.99
2018-11-22T01:05:20.116Z,99.99
2018-11-22T01:06:21.345Z,99.99
2018-11-22T01:07:22.405Z,99.99
2018-11-22T01:08:23.180Z,99.99
2018-11-22T01:09:23.727Z,99.99
2018-11-22T01:10:25.511Z,99.99
2018-11-22T01:11:26.289Z,99.99
2018-11-22T01:12:26.074Z,99.99
2018-11-22T01:13:27.130Z,99.99
2018-11-22T01:14:27.634Z,99.99
2018-11-22T01:15:27.858Z,99.99
2018-11-22T01:16:29.236Z,99.99
2018-11-22T01:17:30.022Z,99.99
2018-11-22T01:18:30.803Z,99.99
2018-11-22T01:19:31.914Z,99.99
2018-11-22T01:20:32.695Z,99.99
2018-11-22T01:21:32.763Z,99.99
2018-11-22T01:22:33.817Z,99.99
2018-11-22T01:23:34.321Z,99.99
2018-11-22T01:24:35.657Z,99.99
2018-11-22T01:25:36.715Z,99.99
2018-11-22T01:26:38.052Z,99.99
2018-11-22T01:27:39.388Z,99.99
2018-11-22T01:28:39.725Z,99.99
2018-11-22T01:29:40.300Z,99.99
2018-11-22T01:30:40.801Z,99.99
2018-11-22T01:31:41.970Z,99.99
2018-11-22T01:32:42.753Z,99.99
2018-11-22T01:33:43.537Z,99.99
2018-11-22T01:34:43.873Z,99.99
2018-11-22T07:16:29.578Z,99.99
2018-11-22T07:17:30.651Z,99.99
2018-11-22T07:18:31.564Z,99.99
2018-11-22T07:19:32.406Z,99.99
2018-11-22T07:20:32.927Z,99.99
2018-11-22T07:21:34.450Z,99.99
2018-11-22T07:22:35.528Z,99.99
2018-11-22T07:23:36.890Z,99.99
2018-11-22T07:24:37.702Z,99.99
2018-11-22T07:25:38.790Z,99.99
2018-11-22T07:26:39.468Z,99.99
2018-11-22T07:27:40.266Z,99.99
2018-11-22T07:28:41.064Z,99.99
2018-11-22T07:29:41.863Z,99.99
2018-11-22T07:30:43.815Z,99.99
2018-11-22T07:31:44.001Z,99.99
2018-11-22T07:32:45.581Z,99.99
2018-11-22T07:33:46.719Z,99.99
2018-11-22T07:34:47.401Z,99.99
2018-11-22T07:35:48.258Z,99.99
2018-11-22T07:36:48.975Z,99.99
2018-11-22T07:37:49.497Z,99.99
2018-11-22T07:38:50.573Z,99.99
2018-11-22T07:39:51.375Z,99.99
2018-11-22T07:40:52.178Z,99.99
2018-11-22T07:41:52.984Z,99.99
2018-11-22T07:42:53.781Z,99.99
2018-11-22T07:43:55.139Z,99.99
2018-11-22T07:44:55.664Z,99.99
2018-11-22T07:45:57.197Z,99.99
2018-11-22T07:46:58.057Z,99.99
2018-11-22T07:47:58.660Z,99.99
2018-11-22T07:49:00.181Z,99.99
2018-11-22T07:50:01.541Z,99.99
2018-11-22T07:51:02.179Z,99.99
2018-11-22T07:52:02.537Z,99.99
2018-11-22T07:53:02.957Z,99.99
2018-11-22T07:54:03.372Z,99.99
2018-11-22T07:55:04.452Z,99.67
2018-11-22T07:56:05.089Z,98.72
2018-11-22T07:57:05.491Z,98.63
2018-11-22T07:58:07.021Z,97.21
2018-11-22T07:59:08.374Z,95.07
2018-11-22T08:00:09.179Z,94.13
2018-11-22T08:01:10.536Z,92.33
2018-11-22T08:02:11.347Z,92.52
2018-11-22T08:03:12.702Z,93.65
2018-11-22T08:04:13.795Z,95.45
2018-11-22T08:05:14.433Z,97.16
2018-11-22T08:06:15.241Z,98.35
2018-11-22T08:07:15.651Z,99.96
2018-11-22T08:08:16.565Z,99.99
2018-11-22T08:09:17.366Z,99.99
2018-11-22T08:10:18.503Z,99.99
2018-11-22T08:11:19.028Z,99.1
2018-11-22T08:12:27.190Z,99.77
2018-11-22T08:12:32.806Z,99.99
2018-11-22T08:13:32.458Z,99.99
2018-11-22T08:14:33.542Z,98.72
2018-11-22T08:15:34.345Z,96.78
2018-11-22T08:16:35.979Z,93.46
2018-11-22T08:17:37.340Z,92.8
2018-11-22T08:18:37.861Z,92.9
2018-11-22T08:19:37.945Z,92.23
2018-11-22T08:20:39.049Z,92.8
2018-11-22T08:21:39.694Z,94.13
2018-11-22T08:22:39.937Z,96.31
2018-11-22T08:23:41.062Z,99.29
2018-11-22T08:24:41.956Z,99.99
2018-11-22T08:25:43.217Z,99.99
2018-11-22T08:26:43.572Z,99.99
2018-11-22T08:27:44.371Z,99.99
2018-11-22T08:28:45.172Z,99.99
2018-11-22T08:29:45.972Z,99.99
2018-11-22T08:30:47.226Z,99.99
2018-11-22T08:31:47.854Z,99.99
2018-11-22T08:32:53.643Z,99.71
2018-11-22T08:33:00.610Z,99.9
2018-11-22T08:34:01.747Z,99.71
2018-11-22T08:35:03.105Z,99.99
2018-11-22T08:36:02.908Z,99.99
2018-11-22T08:37:04.273Z,99.99
2018-11-22T08:38:04.795Z,99.99
2018-11-22T08:39:05.874Z,99.99
2018-11-22T08:40:06.956Z,99.99
2018-11-22T08:41:07.482Z,99.99
2018-11-22T08:42:08.567Z,99.99
2018-11-22T08:43:09.367Z,99.99
2018-11-22T08:44:10.326Z,99.99
2018-11-22T08:45:10.961Z,99.99
2018-11-22T08:46:12.597Z,99.99
2018-11-22T08:47:13.956Z,99.99
2018-11-22T08:48:14.037Z,99.99
2018-11-22T08:49:14.839Z,99.99
2018-11-22T08:50:14.920Z,99.99
2018-11-22T08:51:16.009Z,99.99
2018-11-22T08:52:17.089Z,98.87
2018-11-22T08:53:18.445Z,98.58
2018-11-22T08:54:19.323Z,99.77
2018-11-22T08:55:21.159Z,99.99
2018-11-22T08:56:21.684Z,99.99
2018-11-22T08:57:21.763Z,99.99
2018-11-22T08:58:22.606Z,99.99
2018-11-22T08:59:24.235Z,99.99
2018-11-22T09:00:24.570Z,99.99
2018-11-22T09:01:24.367Z,99.99
2018-11-22T09:02:25.447Z,99.99
2018-11-22T09:03:26.531Z,99.99
2018-11-22T09:05:28.857Z,99.99
2018-11-22T09:06:29.496Z,99.72
2018-11-22T09:07:30.250Z,99.91
2018-11-22T09:08:30.718Z,99.99
2018-11-22T09:09:32.185Z,99.53
2018-11-22T09:10:33.385Z,99.25
2018-11-22T09:11:34.491Z,98.68
2018-11-22T09:12:35.576Z,99.82
2018-11-22T09:13:36.508Z,97.73
2018-11-22T09:14:37.516Z,97.83
2018-11-22T09:15:38.602Z,98.49
2018-11-22T09:16:39.795Z,98.87
2018-11-22T09:17:40.814Z,96.59
2018-11-22T09:18:41.561Z,97.83
2018-11-22T09:19:42.588Z,97.45
2018-11-22T09:20:43.791Z,99.53
2018-11-22T09:21:45.256Z,99.15
2018-11-22T09:22:46.074Z,97.73
2018-11-22T09:23:47.879Z,97.12
2018-11-22T09:24:48.598Z,97.12
2018-11-22T09:25:49.088Z,97.78
2018-11-22T09:26:50.002Z,95.98
2018-11-22T09:27:51.807Z,94.03
2018-11-22T09:28:52.276Z,92.9
2018-11-22T09:29:54.527Z,94.89
2018-11-22T09:30:54.310Z,93.75
2018-11-22T09:31:55.397Z,93.94
2018-11-22T09:32:56.872Z,95.41
2018-11-22T09:33:57.791Z,97.31
2018-11-22T09:34:59.608Z,97.59
2018-11-22T09:36:00.357Z,99.3
2018-11-22T09:37:01.885Z,97.69
2018-11-22T09:38:03.079Z,96.31
2018-11-22T09:39:04.265Z,95.65
2018-11-22T09:40:04.746Z,96.12
2018-11-22T09:41:06.263Z,97.07
2018-11-22T09:42:06.359Z,97.07
2018-11-22T09:43:07.188Z,95.17
2018-11-22T09:44:07.920Z,95.27
2018-11-22T09:45:08.890Z,95.74
2018-11-22T09:46:10.003Z,96.5
2018-11-22T09:47:10.754Z,96.5
2018-11-22T09:48:11.241Z,97.55
2018-11-22T09:49:11.717Z,95.31
2018-11-22T09:50:12.426Z,94.32
2018-11-22T09:51:12.543Z,94.7
2018-11-22T09:52:14.636Z,96.97
2018-11-22T09:53:14.931Z,96.83
2018-11-22T09:54:15.818Z,97.31
2018-11-22T09:55:16.678Z,96.88
2018-11-22T09:56:17.485Z,94.98
2018-11-22T09:57:18.332Z,93.75
2018-11-22T09:58:19.503Z,92.8
2018-11-22T09:59:21.251Z,92.23
2018-11-22T10:00:21.992Z,91.61
2018-11-22T10:01:23.075Z,88.01
2018-11-22T10:02:24.271Z,87.19
2018-11-22T10:03:25.468Z,85.39
2018-11-22T10:04:26.251Z,84.77
2018-11-22T10:05:28.855Z,83.91
2018-11-22T10:06:28.930Z,84.58
2018-11-22T10:07:29.896Z,84.95
2018-11-22T10:08:31.549Z,86.05
2018-11-22T10:09:31.513Z,88.2
2018-11-22T10:10:32.435Z,90.47
2018-11-22T10:11:33.633Z,91.8
2018-11-22T10:12:36.106Z,91.42
2018-11-22T10:13:35.938Z,90.85
2018-11-22T10:14:37.133Z,90.66
2018-11-22T10:15:38.535Z,90.28
2018-11-22T10:16:39.018Z,89.47
2018-11-22T10:17:39.938Z,83.44
2018-11-22T10:18:40.497Z,80.3
2018-11-22T10:19:41.417Z,78.91
2018-11-22T10:20:42.093Z,76.86
2018-11-22T10:21:43.757Z,75.81
2018-11-22T10:22:44.968Z,76.67
2018-11-22T10:23:46.369Z,73.76
2018-11-22T10:24:46.908Z,71.57
2018-11-22T10:25:47.905Z,73.95
2018-11-22T10:26:48.377Z,73.28
2018-11-22T10:27:49.021Z,74.14
2018-11-22T10:28:50.502Z,74.24
2018-11-22T10:29:51.051Z,73.95
2018-11-22T10:30:52.528Z,73.76
2018-11-22T10:31:53.247Z,73.38
2018-11-22T10:32:54.729Z,72.81
2018-11-22T10:33:55.015Z,72.17
2018-11-22T10:34:56.263Z,71.51
2018-11-22T10:35:57.443Z,71.22
2018-11-22T10:36:58.419Z,71.61
2018-11-22T10:38:01.084Z,69.51
2018-11-22T10:39:01.974Z,70.08
2018-11-22T10:40:02.826Z,71
2018-11-22T10:41:03.475Z,72.05
2018-11-22T10:42:04.713Z,71.09
2018-11-22T10:44:06.713Z,71.89
2018-11-22T10:45:06.773Z,70.56
2018-11-22T10:46:08.031Z,68.94
2018-11-22T10:47:09.798Z,69.23
2018-11-22T10:48:10.503Z,69.04
2018-11-22T10:49:10.980Z,68.65
2018-11-22T10:50:12.464Z,69.6
2018-11-22T10:51:13.824Z,68.5
2018-11-22T10:52:14.068Z,66.97
2018-11-22T10:53:15.993Z,66.05
2018-11-22T10:54:17.281Z,65.86
2018-11-22T10:55:18.713Z,67.2
2018-11-22T10:56:19.591Z,67.2
2018-11-22T10:57:20.338Z,69.45
2018-11-22T10:58:21.643Z,70.08
2018-11-22T10:59:23.059Z,70.37
2018-11-22T11:00:24.004Z,70.84
2018-11-22T11:01:25.034Z,71.8
2018-11-22T11:02:25.997Z,71.42
2018-11-22T11:03:27.002Z,72.08
2018-11-22T11:04:27.936Z,70.59
2018-11-22T11:05:29.059Z,70.59
2018-11-22T11:06:29.944Z,70.5
2018-11-22T11:07:30.886Z,68.53
2018-11-22T11:08:31.531Z,67
2018-11-22T11:09:33.285Z,66.72
2018-11-22T11:10:34.439Z,67.77
2018-11-22T11:11:35.544Z,68.44
2018-11-22T11:12:39.464Z,68.44
2018-11-22T11:12:48.931Z,68.24
2018-11-22T11:13:50.942Z,68.44
2018-11-22T11:14:02.139Z,67.9
2018-11-22T11:15:05.781Z,66.28
2018-11-22T11:15:16.805Z,66.47
2018-11-22T11:15:28.949Z,66.09
2018-11-22T11:15:41.084Z,65.99
2018-11-22T11:16:40.542Z,63.8
2018-11-22T11:17:41.786Z,62.75
2018-11-22T11:18:42.593Z,65.33
2018-11-22T11:19:43.897Z,67
2018-11-22T11:20:44.122Z,65.67
2018-11-22T11:21:45.476Z,65.77
2018-11-22T11:22:46.675Z,65.86
2018-11-22T11:23:47.151Z,66.53
2018-11-22T11:24:47.677Z,66.21
2018-11-22T11:25:48.396Z,66.78
2018-11-22T11:26:49.172Z,67.45
2018-11-22T11:27:50.548Z,67.07
2018-11-22T11:28:52.060Z,67.07
2018-11-22T11:29:52.255Z,67.74
2018-11-22T11:30:53.173Z,68.84
2018-11-22T11:31:54.374Z,69.42
2018-11-22T11:32:55.215Z,69.04
2018-11-22T11:33:55.378Z,69.17
2018-11-22T11:34:56.007Z,68.69
2018-11-22T11:35:56.941Z,69.45
2018-11-22T11:36:57.324Z,69.07
2018-11-22T11:37:57.691Z,66.91
2018-11-22T11:38:58.613Z,67.2
2018-11-22T11:40:03.845Z,66.91
2018-11-22T11:40:12.854Z,67.26
2018-11-22T11:40:25.548Z,67.74
2018-11-22T11:40:36.592Z,67.74
2018-11-22T11:40:49.683Z,68.12
2018-11-22T11:41:02.415Z,68.02
2018-11-22T11:41:15.380Z,68.3
2018-11-22T11:41:26.904Z,68.5
2018-11-22T11:41:39.184Z,68.3
2018-11-22T11:41:52.041Z,68.02
2018-11-22T11:42:03.047Z,67.83
2018-11-22T11:42:15.228Z,67.74
2018-11-22T11:42:27.025Z,67.83
2018-11-22T11:42:38.374Z,68.02
2018-11-22T11:42:50.170Z,68.88
2018-11-22T11:43:06.287Z,68.69
2018-11-22T11:43:17.970Z,68.3
2018-11-22T11:44:18.629Z,70.12
2018-11-22T11:45:19.828Z,67.74
2018-11-22T11:46:20.756Z,67.1
2018-11-22T11:47:22.437Z,67.1
2018-11-22T11:48:23.017Z,67.74
2018-11-22T11:49:23.960Z,68.88
2018-11-22T11:50:24.884Z,68.21
2018-11-22T11:51:25.683Z,68.05
2018-11-22T11:52:26.008Z,66.82
2018-11-22T11:53:42.456Z,65.86
2018-11-22T11:54:39.761Z,66.05
2018-11-22T11:55:39.893Z,67.64
2018-11-22T11:56:40.951Z,67.74
2018-11-22T11:57:42.154Z,68.69
2018-11-22T11:58:42.630Z,69.54
2018-11-22T11:59:44.388Z,68.88
2018-11-22T12:00:45.312Z,69.58
2018-11-22T12:01:46.518Z,66.66
2018-11-22T12:02:47.724Z,65.67
2018-11-22T12:03:48.091Z,66.63
2018-11-22T12:04:49.916Z,66.72
2018-11-22T12:05:50.845Z,66.59
2018-11-22T12:06:51.354Z,67.16
2018-11-22T12:07:54.656Z,67.93
2018-11-22T12:08:54.474Z,68.12
2018-11-22T12:09:57.664Z,68.4
2018-11-22T12:10:09.097Z,68.59
2018-11-22T12:11:10.370Z,68.59
2018-11-22T12:12:11.042Z,68.53
2018-11-22T12:13:11.700Z,68.53
2018-11-22T12:14:13.457Z,67.29
2018-11-22T12:15:14.385Z,67
2018-11-22T12:16:15.561Z,67
2018-11-22T12:17:18.589Z,67.48
2018-11-22T12:18:17.983Z,67.77
2018-11-22T12:19:18.887Z,67.64
2018-11-22T12:20:20.578Z,68.88
2018-11-22T12:21:21.888Z,68.82
2018-11-22T12:22:25.681Z,69.29
2018-11-22T12:22:35.860Z,69.58
2018-11-22T12:23:37.130Z,68.34
2018-11-22T12:24:36.582Z,67.77
2018-11-22T12:25:37.848Z,68.05
2018-11-22T12:26:37.661Z,68.82
2018-11-22T12:27:39.234Z,68.38
2018-11-22T12:28:40.532Z,67.61
2018-11-22T12:29:41.736Z,66.85
2018-11-22T12:30:42.667Z,67.04
2018-11-22T12:31:43.437Z,67.1
2018-11-22T12:32:44.181Z,67.58
2018-11-22T12:33:44.561Z,68.24
2018-11-22T12:34:46.041Z,69.48
2018-11-22T12:35:47.807Z,68.53
2018-11-22T12:36:48.792Z,69.58
2018-11-22T12:37:49.988Z,70.5
2018-11-22T12:38:52.278Z,71.83
2018-11-22T12:39:53.473Z,70.34
2018-11-22T12:40:54.673Z,70.63
2018-11-22T12:41:54.914Z,69.77
2018-11-22T12:42:56.929Z,69.68
2018-11-22T12:43:08.887Z,69.35
2018-11-22T12:44:09.930Z,70.5
2018-11-22T12:45:11.171Z,70.78
2018-11-22T12:46:12.098Z,71.55
2018-11-22T12:47:13.007Z,71.26
2018-11-22T12:48:13.644Z,71.36
2018-11-22T12:49:14.566Z,71.26
2018-11-22T12:50:14.997Z,71.36
2018-11-22T12:51:16.199Z,71.55
2018-11-22T12:52:16.722Z,71.64
2018-11-22T12:53:18.560Z,71.26
2018-11-22T12:54:20.349Z,70.5
2018-11-22T12:55:21.809Z,70.88
2018-11-22T12:56:22.744Z,73.58
2018-11-22T12:57:24.233Z,70.72
2018-11-22T12:58:24.931Z,69.68
2018-11-22T12:59:25.935Z,69.48
2018-11-22T13:00:27.497Z,69.68
2018-11-22T13:01:28.502Z,70.34
2018-11-22T13:02:29.545Z,69.77
2018-11-22T13:03:29.997Z,69.29
2018-11-22T13:04:31.917Z,69.77
2018-11-22T13:05:32.518Z,69.68
2018-11-22T13:06:33.684Z,70.06
2018-11-22T13:07:34.716Z,71.14
2018-11-22T13:08:35.357Z,70.19
2018-11-22T13:09:37.120Z,69.71
2018-11-22T13:10:37.774Z,68.95
2018-11-22T13:11:38.418Z,69.33
2018-11-22T13:11:49.925Z,69.23
2018-11-22T13:12:50.733Z,69.14
2018-11-22T13:13:51.104Z,70.38
2018-11-22T13:14:52.025Z,70.19
2018-11-22T13:15:52.611Z,68.28
2018-11-22T13:16:53.253Z,68.47
2018-11-22T13:17:54.960Z,68.95
2018-11-22T13:19:00.866Z,69.33
2018-11-22T13:19:07.851Z,68.95
2018-11-22T13:20:08.299Z,69.52
2018-11-22T13:21:09.592Z,68.57
2018-11-22T13:22:10.074Z,69.43
2018-11-22T13:23:10.998Z,69.62
2018-11-22T13:24:12.749Z,68.57
2018-11-22T13:25:13.243Z,68.85
2018-11-22T13:26:13.940Z,69.71
2018-11-22T13:27:14.858Z,69.17
2018-11-22T13:28:15.886Z,70.22
2018-11-22T13:29:17.087Z,71.46
2018-11-22T13:30:18.621Z,69.27
2018-11-22T13:31:19.828Z,68.06
2018-11-22T13:32:23.097Z,68.26
2018-11-22T13:33:24.631Z,67.65
2018-11-22T13:34:25.616Z,67.58
2018-11-22T13:35:25.815Z,68.12
2018-11-22T13:36:26.847Z,67.93
2018-11-22T13:37:28.325Z,67.27
2018-11-22T13:38:29.077Z,66.88
2018-11-22T13:39:30.286Z,67.27
2018-11-22T13:40:32.112Z,68.22
2018-11-22T13:41:32.484Z,68.98
2018-11-22T13:42:33.128Z,69.08
2018-11-22T13:43:34.605Z,68.44
2018-11-22T13:44:35.836Z,67.3
2018-11-22T13:45:36.478Z,66.56
2018-11-22T13:46:39.749Z,66.53
2018-11-22T13:46:50.012Z,66.44
2018-11-22T13:47:51.160Z,67.77
2018-11-22T13:48:52.609Z,68.7
2018-11-22T13:49:56.100Z,70.22
2018-11-22T13:50:06.896Z,69.74
2018-11-22T13:51:05.833Z,71.08
2018-11-22T13:52:07.073Z,71.91
2018-11-22T13:53:08.069Z,71.81
2018-11-22T13:54:09.752Z,72.96
2018-11-22T13:55:09.774Z,73.81
2018-11-22T13:56:10.599Z,74.01
2018-11-22T13:57:11.199Z,74.35
2018-11-22T13:58:12.385Z,75.4
2018-11-22T13:59:13.578Z,76.16
2018-11-22T14:00:14.514Z,76.98
2018-11-22T14:01:16.005Z,77.83
2018-11-22T14:02:17.893Z,78.59
2018-11-22T14:02:28.628Z,78.88
2018-11-22T14:03:28.950Z,78.88
2018-11-22T14:04:30.680Z,79.27
2018-11-22T14:05:31.772Z,79.46
2018-11-22T14:06:32.972Z,80.31
2018-11-22T14:07:33.895Z,80.79
2018-11-22T14:08:35.089Z,80.98
2018-11-22T14:09:36.216Z,81.26
2018-11-22T14:10:36.541Z,82.21
2018-11-22T14:11:38.314Z,82.12
2018-11-22T14:12:38.971Z,82.84
2018-11-22T14:13:40.044Z,83.7
2018-11-22T14:14:41.789Z,84.17
2018-11-22T14:15:42.431Z,84.65
2018-11-22T14:16:43.345Z,85.51
2018-11-22T14:17:44.822Z,85.94
2018-11-22T14:18:45.018Z,86.8
2018-11-22T14:19:45.379Z,87.08
2018-11-22T14:20:46.297Z,88.23
2018-11-22T14:21:46.493Z,89.18
2018-11-22T14:22:47.452Z,88.51
2018-11-22T14:23:49.009Z,88.32
2018-11-22T14:24:49.672Z,89.94
2018-11-22T14:25:51.182Z,90.42
2018-11-22T14:26:52.951Z,90.61
2018-11-22T14:27:53.974Z,89.61
2018-11-22T14:28:54.201Z,89.03
2018-11-22T14:29:55.404Z,88.93
2018-11-22T14:30:55.884Z,88.08
2018-11-22T14:31:56.455Z,88.79
2018-11-22T14:32:58.195Z,89.37
2018-11-22T14:33:59.268Z,89.84
2018-11-22T14:35:01.679Z,90.7
2018-11-22T14:36:03.152Z,91.08
2018-11-22T14:37:04.798Z,91.46
2018-11-22T14:38:05.386Z,91.46
2018-11-22T14:39:06.083Z,90.89
2018-11-22T14:40:07.335Z,91.56
2018-11-22T14:41:08.254Z,92.41
2018-11-22T14:42:08.924Z,92.6
2018-11-22T14:43:10.227Z,91.46
2018-11-22T14:44:10.119Z,92.13
2018-11-22T14:45:11.310Z,92.51
2018-11-22T14:46:12.797Z,92.22
2018-11-22T14:47:13.717Z,93.08
2018-11-22T14:48:15.228Z,93.55
2018-11-22T14:49:15.231Z,94.6
2018-11-22T14:50:16.700Z,94.42
2018-11-22T14:51:17.445Z,93.94
2018-11-22T14:52:18.638Z,94.03
2018-11-22T14:53:19.519Z,94.13
2018-11-22T14:54:20.468Z,95.56
2018-11-22T14:55:21.167Z,95.27
2018-11-22T14:56:21.849Z,95.84
2018-11-22T14:57:23.089Z,95.75
2018-11-22T14:58:24.003Z,95.36
2018-11-22T14:59:24.367Z,94.98
2018-11-22T15:00:25.571Z,94.42
2018-11-22T15:01:26.319Z,95.56
2018-11-22T15:02:27.062Z,95.84
2018-11-22T15:03:28.142Z,96.03
2018-11-22T15:04:29.925Z,95.51
2018-11-22T15:05:31.362Z,95.75
2018-11-22T15:06:32.543Z,95.56
2018-11-22T15:07:33.572Z,97.22
2018-11-22T15:08:34.051Z,97.55
2018-11-22T15:09:34.562Z,96.84
2018-11-22T15:10:35.753Z,97.41
2018-11-22T15:11:36.676Z,96.55
2018-11-22T15:12:37.316Z,97.5
2018-11-22T15:13:39.007Z,96.84
2018-11-22T15:13:49.361Z,97.13
2018-11-22T15:14:50.619Z,96.94
2018-11-22T15:15:51.834Z,96.94
2018-11-22T15:16:53.272Z,98.17
2018-11-22T15:17:54.139Z,98.17
2018-11-22T15:18:55.349Z,97.88
2018-11-22T15:19:59.528Z,97.69
2018-11-22T15:20:11.183Z,97.69
2018-11-22T15:20:23.360Z,97.88
2018-11-22T15:20:35.875Z,97.79
2018-11-22T15:20:47.629Z,98.17
2018-11-22T15:21:03.205Z,97.98
2018-11-22T15:21:11.912Z,98.03
2018-11-22T15:22:10.131Z,98.46
2018-11-22T15:23:11.773Z,98.79
2018-11-22T15:24:12.406Z,98.6
2018-11-22T15:25:13.102Z,98.22
2018-11-22T15:26:14.736Z,99.16
2018-11-22T15:27:16.219Z,98.97
2018-11-22T15:28:17.407Z,99.84
2018-11-22T15:29:18.604Z,99.99
2018-11-22T15:30:20.348Z,99.99
2018-11-22T15:31:21.535Z,99.99
2018-11-22T15:32:22.805Z,99.99
2018-11-22T15:33:24.282Z,99.99
2018-11-22T15:34:25.200Z,99.99
2018-11-22T15:35:26.948Z,99.99
2018-11-22T15:36:28.417Z,99.99
2018-11-22T15:37:29.407Z,99.99
2018-11-22T15:38:30.242Z,99.99
2018-11-22T15:39:31.436Z,99.99
2018-11-22T15:40:33.287Z,99.99
2018-11-22T15:41:34.811Z,99.99
2018-11-22T15:42:35.644Z,99.99
2018-11-22T15:43:36.828Z,99.99
2018-11-22T15:44:40.468Z,99.99
2018-11-22T15:45:38.380Z,99.99
2018-11-22T15:46:39.570Z,99.99
2018-11-22T15:47:40.348Z,99.99
2018-11-22T15:48:41.817Z,99.99
2018-11-22T15:49:43.006Z,99.99
2018-11-22T15:50:44.198Z,99.99
2018-11-22T15:51:46.460Z,99.99
2018-11-22T15:52:46.373Z,99.99
2018-11-22T15:53:47.690Z,99.99
2018-11-22T15:54:48.162Z,99.99
2018-11-22T15:55:49.517Z,99.99
2018-11-22T15:56:50.032Z,99.99
2018-11-22T15:57:51.497Z,99.99
2018-11-22T15:58:52.960Z,99.99
2018-11-22T15:59:56.116Z,99.99
2018-11-22T16:00:06.248Z,99.99
2018-11-22T16:01:06.909Z,99.99
2018-11-22T16:02:07.661Z,99.99
2018-11-22T16:03:09.397Z,99.99
2018-11-22T16:04:10.183Z,99.99
2018-11-22T16:05:10.820Z,99.99
2018-11-22T16:06:12.297Z,99.99
2018-11-22T16:07:12.683Z,99.99
2018-11-22T16:08:14.430Z,99.99
2018-11-22T16:09:15.831Z,99.99
2018-11-22T16:10:17.481Z,99.99
2018-11-22T16:10:28.464Z,99.99
2018-11-22T16:11:29.536Z,99.99
2018-11-22T16:12:30.327Z,99.99
2018-11-22T16:13:31.604Z,99.99
2018-11-22T16:14:32.896Z,99.99
2018-11-22T16:15:34.022Z,99.99
2018-11-22T16:16:35.662Z,99.99
2018-11-22T16:17:36.611Z,99.99
2018-11-22T16:18:37.655Z,99.99
2018-11-22T16:19:38.502Z,99.99
2018-11-22T16:20:39.547Z,99.99
2018-11-22T16:21:39.741Z,99.99
2018-11-22T16:22:40.451Z,99.99
2018-11-22T16:23:40.916Z,99.99
2018-11-22T16:24:41.933Z,99.99
2018-11-22T16:25:42.993Z,99.99
2018-11-22T16:26:43.845Z,99.99
2018-11-22T16:27:44.157Z,99.99
2018-11-22T16:28:44.604Z,99.99
2018-11-22T16:29:46.469Z,99.99
2018-11-22T16:30:48.711Z,99.99
2018-11-22T16:31:49.327Z,99.99
2018-11-22T16:32:51.126Z,99.99
2018-11-22T16:33:51.394Z,99.99
2018-11-22T16:34:52.898Z,99.99
2018-11-22T16:35:54.389Z,99.99
2018-11-22T16:36:55.894Z,99.99
2018-11-22T16:37:56.080Z,99.99
2018-11-22T16:38:57.820Z,99.99
2018-11-22T16:39:59.245Z,99.99
2018-11-22T16:41:00.056Z,99.99
2018-11-22T16:42:00.600Z,99.99
2018-11-22T16:43:01.641Z,99.99
2018-11-22T16:44:04.687Z,99.99
2018-11-22T16:45:05.940Z,99.99
2018-11-22T16:46:06.580Z,99.99
2018-11-22T16:47:07.827Z,99.99
2018-11-22T16:48:09.719Z,99.99
2018-11-22T16:48:20.241Z,99.99
2018-11-22T16:49:21.085Z,99.99
2018-11-22T16:50:21.774Z,99.99
2018-11-22T16:51:21.849Z,99.99
2018-11-22T16:52:23.307Z,99.99
2018-11-22T16:53:23.772Z,99.99
2018-11-22T16:54:25.734Z,99.99
2018-11-22T16:55:27.661Z,99.99
2018-11-22T16:55:39.290Z,99.99
2018-11-22T16:55:51.448Z,99.99
2018-11-22T16:56:05.025Z,99.99
2018-11-22T16:57:03.863Z,99.99
2018-11-22T16:58:04.658Z,99.99
2018-11-22T16:59:05.857Z,99.99
2018-11-22T17:00:06.499Z,99.99
2018-11-22T17:01:07.752Z,99.99
2018-11-22T17:02:08.902Z,99.99
2018-11-22T17:03:10.015Z,99.99
2018-11-22T17:04:11.333Z,99.99
2018-11-22T17:05:11.246Z,99.99
2018-11-22T17:06:12.987Z,99.99
2018-11-22T17:07:13.270Z,99.99
2018-11-22T17:08:14.456Z,99.99
2018-11-22T17:09:15.647Z,99.99
2018-11-22T17:10:16.278Z,99.99
2018-11-22T17:11:17.266Z,99.99
2018-11-22T17:12:18.792Z,99.99
2018-11-22T17:13:20.121Z,99.99
2018-11-22T17:14:20.492Z,99.99
2018-11-22T17:15:21.579Z,99.99
2018-11-22T17:16:22.408Z,99.99
2018-11-22T17:17:23.228Z,99.99
2018-11-22T17:18:24.467Z,99.99
2018-11-22T17:19:24.713Z,99.99
2018-11-22T17:20:26.369Z,99.99
2018-11-22T17:21:26.357Z,99.99
2018-11-22T17:22:30.160Z,99.99
2018-11-22T17:23:31.697Z,99.99
2018-11-22T17:24:32.267Z,99.99
2018-11-22T17:25:33.819Z,99.99
2018-11-22T17:26:34.434Z,99.99
2018-11-22T17:27:35.654Z,99.99
2018-11-22T17:28:35.908Z,99.99
2018-11-22T17:29:36.854Z,99.99
2018-11-22T17:29:48.185Z,99.99
2018-11-22T17:30:52.563Z,99.99
2018-11-22T17:31:01.937Z,99.99
2018-11-22T17:32:02.321Z,99.99
2018-11-22T17:33:03.398Z,99.99
2018-11-22T17:34:04.985Z,99.99
2018-11-22T17:35:05.930Z,99.99
2018-11-22T17:36:06.693Z,99.99
2018-11-22T17:37:08.042Z,99.99
2018-11-22T17:38:08.813Z,99.99
2018-11-22T17:39:10.093Z,99.99
2018-11-22T17:40:11.729Z,99.99
2018-11-22T17:41:14.069Z,99.99
2018-11-22T17:42:14.136Z,99.99
2018-11-22T17:43:15.364Z,99.99
2018-11-22T17:44:16.279Z,99.99
2018-11-22T17:45:16.908Z,99.99
2018-11-22T17:46:18.378Z,99.99
2018-11-22T17:47:20.006Z,99.99
2018-11-22T17:48:21.271Z,99.99
2018-11-22T17:49:22.867Z,99.99
2018-11-22T17:50:24.305Z,99.99
2018-11-22T17:51:24.889Z,99.99
2018-11-22T17:52:25.487Z,99.99
2018-11-22T17:53:26.725Z,99.99
2018-11-22T17:54:27.501Z,99.99
2018-11-22T17:55:28.533Z,99.99
2018-11-22T17:56:31.530Z,99.99
2018-11-22T17:57:31.434Z,99.99
2018-11-22T17:58:33.041Z,99.99
2018-11-22T17:59:34.213Z,99.99
2018-11-22T18:00:35.447Z,99.99
2018-11-22T18:01:35.785Z,99.99
2018-11-22T18:02:36.265Z,99.99
2018-11-22T18:03:37.209Z,99.99
2018-11-22T18:04:38.029Z,99.99
2018-11-22T18:05:39.417Z,99.99
2018-11-22T18:06:39.457Z,99.99
2018-11-22T18:07:40.369Z,99.99
2018-11-22T18:08:41.434Z,99.99
2018-11-22T18:09:42.618Z,99.99
2018-11-22T18:10:43.802Z,99.99
2018-11-22T18:11:45.345Z,99.99
2018-11-22T18:12:46.438Z,99.99